createdAt,value
2018-06-27T00:01:23.271Z,13.83
2018-06-27T00:03:54.052Z,13.85
2018-06-27T00:06:24.968Z,13.88
2018-06-27T00:08:56.262Z,13.89
2018-06-27T00:11:26.902Z,13.91
2018-06-27T00:13:58.242Z,13.92
2018-06-27T00:16:28.864Z,13.93
2018-06-27T00:18:59.275Z,13.96
2018-06-27T00:21:29.945Z,13.98
2018-06-27T00:24:01.143Z,13.96
2018-06-27T00:26:34.738Z,13.96
2018-06-27T00:29:09.564Z,13.98
2018-06-27T00:31:39.460Z,14.00
2018-06-27T00:34:09.494Z,14.01
2018-06-27T00:36:39.502Z,14.01
2018-06-27T00:39:10.858Z,14.01
2018-06-27T00:41:40.833Z,14.00
2018-06-27T00:44:10.940Z,13.97
2018-06-27T00:46:40.772Z,13.98
2018-06-27T00:49:11.341Z,13.97
2018-06-27T00:51:41.274Z,13.96
2018-06-27T00:54:12.328Z,13.97
2018-06-27T00:56:43.089Z,13.97
2018-06-27T00:59:13.943Z,13.97
2018-06-27T01:01:44.890Z,13.95
2018-06-27T01:04:15.232Z,13.95
2018-06-27T01:06:45.888Z,13.94
2018-06-27T01:09:18.212Z,13.93
2018-06-27T01:11:48.178Z,13.93
2018-06-27T01:14:18.967Z,13.92
2018-06-27T01:16:49.932Z,13.91
2018-06-27T01:19:20.976Z,13.90
2018-06-27T01:21:52.131Z,13.89
2018-06-27T01:24:23.193Z,13.87
2018-06-27T01:26:53.855Z,13.85
2018-06-27T01:29:25.331Z,13.85
2018-06-27T01:31:55.362Z,13.83
2018-06-27T01:34:25.985Z,13.78
2018-06-27T01:36:56.911Z,13.75
2018-06-27T01:39:28.286Z,13.74
2018-06-27T01:41:58.947Z,13.72
2018-06-27T01:44:29.984Z,13.72
2018-06-27T01:47:00.933Z,13.69
2018-06-27T01:49:31.946Z,13.68
2018-06-27T01:52:02.914Z,13.67
2018-06-27T01:54:33.882Z,13.64
2018-06-27T01:57:05.291Z,13.62
2018-06-27T01:59:36.023Z,13.61
2018-06-27T02:02:06.917Z,13.56
2018-06-27T02:04:38.340Z,13.52
2018-06-27T02:07:10.586Z,13.48
2018-06-27T02:09:40.537Z,13.45
2018-06-27T02:12:11.109Z,13.43
2018-06-27T02:14:55.280Z,13.42
2018-06-27T02:17:25.185Z,13.39
2018-06-27T02:19:55.103Z,13.39
2018-06-27T02:22:24.974Z,13.39
2018-06-27T02:24:54.878Z,13.39
2018-06-27T02:27:24.742Z,13.36
2018-06-27T02:29:54.693Z,13.35
2018-06-27T02:32:24.595Z,13.33
2018-06-27T02:34:54.622Z,13.32
2018-06-27T02:37:24.520Z,13.29
2018-06-27T02:39:54.535Z,13.26
2018-06-27T02:42:24.457Z,13.18
2018-06-27T02:44:54.445Z,13.16
2018-06-27T02:47:24.290Z,13.09
2018-06-27T02:49:54.988Z,13.02
2018-06-27T02:52:24.981Z,12.98
2018-06-27T02:54:54.937Z,12.97
2018-06-27T02:57:26.828Z,12.99
2018-06-27T02:59:57.566Z,12.98
2018-06-27T03:02:28.157Z,12.98
2018-06-27T03:04:59.240Z,12.99
2018-06-27T03:07:29.977Z,12.99
2018-06-27T03:10:00.927Z,12.97
2018-06-27T03:12:32.282Z,12.96
2018-06-27T03:15:02.841Z,12.95
2018-06-27T03:17:33.110Z,12.95
2018-06-27T03:20:04.059Z,12.95
2018-06-27T03:22:34.053Z,12.95
2018-06-27T03:25:05.415Z,12.95
2018-06-27T03:27:35.958Z,12.94
2018-06-27T03:30:07.599Z,12.93
2018-06-27T03:32:38.541Z,12.92
2018-06-27T03:35:09.210Z,12.93
2018-06-27T03:37:39.857Z,12.93
2018-06-27T03:40:11.335Z,12.95
2018-06-27T03:42:41.886Z,12.94
2018-06-27T03:45:12.273Z,12.95
2018-06-27T03:47:42.961Z,12.96
2018-06-27T03:50:14.021Z,12.97
2018-06-27T03:52:48.360Z,12.98
2018-06-27T03:55:18.234Z,12.99
2018-06-27T03:57:48.670Z,13.00
2018-06-27T04:00:18.615Z,13.03
2018-06-27T04:02:49.207Z,13.06
2018-06-27T04:05:20.003Z,13.09
2018-06-27T04:07:50.911Z,13.11
2018-06-27T04:10:28.039Z,13.12
2018-06-27T04:12:58.097Z,13.15
2018-06-27T04:15:33.067Z,13.20
2018-06-27T04:18:02.900Z,13.24
2018-06-27T04:20:32.825Z,13.29
2018-06-27T04:23:14.411Z,13.36
2018-06-27T04:25:44.588Z,13.41
2018-06-27T04:28:14.707Z,13.47
2018-06-27T04:30:44.633Z,13.52
2018-06-27T04:33:14.450Z,13.55
2018-06-27T04:35:44.937Z,13.58
2018-06-27T04:38:14.753Z,13.61
2018-06-27T04:40:44.772Z,13.60
2018-06-27T04:43:14.788Z,13.64
2018-06-27T04:45:44.893Z,13.69
2018-06-27T04:48:14.717Z,13.75
2018-06-27T04:50:44.699Z,13.86
2018-06-27T04:53:14.662Z,13.90
2018-06-27T04:55:44.649Z,13.95
2018-06-27T04:58:14.997Z,14.01
2018-06-27T05:00:44.922Z,14.05
2018-06-27T05:03:14.768Z,14.08
2018-06-27T05:05:45.203Z,14.18
2018-06-27T05:08:15.047Z,14.24
2018-06-27T05:10:44.932Z,14.31
2018-06-27T05:13:15.197Z,14.35
2018-06-27T05:15:45.985Z,14.42
2018-06-27T05:18:16.107Z,14.44
2018-06-27T05:20:46.895Z,14.52
2018-06-27T05:23:18.276Z,14.56
2018-06-27T05:25:49.035Z,14.57
2018-06-27T05:28:20.009Z,14.61
2018-06-27T05:30:51.356Z,14.70
2018-06-27T05:33:22.244Z,14.76
2018-06-27T05:35:52.955Z,14.95
2018-06-27T05:38:23.965Z,14.99
2018-06-27T05:40:54.954Z,15.01
2018-06-27T05:43:25.977Z,15.06
2018-06-27T05:45:57.257Z,15.13
2018-06-27T05:48:27.159Z,15.15
2018-06-27T05:50:57.893Z,15.20
2018-06-27T05:53:29.284Z,15.34
2018-06-27T05:55:59.938Z,15.28
2018-06-27T05:58:31.281Z,15.26
2018-06-27T06:01:01.998Z,15.38
2018-06-27T06:03:33.276Z,15.57
2018-06-27T06:06:04.026Z,15.92
2018-06-27T06:08:34.984Z,16.18
2018-06-27T06:11:04.846Z,16.39
2018-06-27T06:13:36.291Z,16.58
2018-06-27T06:16:07.090Z,16.59
2018-06-27T06:18:38.456Z,16.68
2018-06-27T06:21:09.167Z,16.81
2018-06-27T06:23:39.094Z,16.84
2018-06-27T06:26:09.943Z,16.92
2018-06-27T06:28:41.270Z,16.99
2018-06-27T06:31:12.134Z,16.99
2018-06-27T06:33:43.715Z,16.99
2018-06-27T06:36:14.310Z,17.01
2018-06-27T06:38:44.971Z,17.03
2018-06-27T06:41:15.941Z,17.12
2018-06-27T06:43:47.467Z,17.23
2018-06-27T06:46:18.014Z,17.46
2018-06-27T06:48:49.436Z,17.53
2018-06-27T06:51:20.050Z,17.61
2018-06-27T06:53:51.049Z,17.64
2018-06-27T06:56:22.082Z,17.74
2018-06-27T06:58:52.933Z,17.90
2018-06-27T07:01:24.216Z,18.04
2018-06-27T07:03:55.738Z,18.14
2018-06-27T07:06:25.567Z,18.19
2018-06-27T07:08:56.129Z,18.35
2018-06-27T07:11:26.942Z,18.45
2018-06-27T07:13:58.226Z,18.54
2018-06-27T07:16:29.315Z,18.64
2018-06-27T07:19:00.050Z,18.64
2018-06-27T07:21:31.353Z,18.76
2018-06-27T07:24:02.040Z,18.88
2018-06-27T07:26:33.062Z,18.96
2018-06-27T07:29:04.532Z,19.12
2018-06-27T07:31:34.411Z,19.29
2018-06-27T07:34:05.090Z,19.20
2018-06-27T07:36:36.241Z,19.27
2018-06-27T07:39:11.041Z,19.28
2018-06-27T07:41:40.985Z,19.30
2018-06-27T07:44:10.832Z,19.31
2018-06-27T07:46:41.855Z,19.44
2018-06-27T07:49:11.942Z,19.52
2018-06-27T07:51:42.597Z,19.49
2018-06-27T07:54:13.217Z,19.58
2018-06-27T07:56:44.066Z,19.57
2018-06-27T07:59:15.143Z,19.53
2018-06-27T08:01:45.994Z,19.49
2018-06-27T08:04:17.292Z,19.41
2018-06-27T08:06:48.299Z,18.78
2018-06-27T08:09:18.971Z,19.58
2018-06-27T08:11:49.988Z,19.59
2018-06-27T08:14:21.167Z,19.64
2018-06-27T08:16:52.307Z,19.62
2018-06-27T08:19:23.038Z,19.65
2018-06-27T08:21:53.991Z,19.79
2018-06-27T08:24:23.887Z,19.90
2018-06-27T08:26:55.372Z,20.03
2018-06-27T08:29:26.047Z,20.17
2018-06-27T08:31:56.677Z,20.30
2018-06-27T08:34:27.322Z,20.36
2018-06-27T08:36:57.995Z,20.40
2018-06-27T08:39:28.963Z,20.51
2018-06-27T08:42:00.187Z,20.51
2018-06-27T08:44:31.167Z,20.65
2018-06-27T08:47:01.960Z,20.65
2018-06-27T08:49:32.958Z,20.72
2018-06-27T08:52:03.965Z,20.93
2018-06-27T08:54:38.954Z,21.09
2018-06-27T08:57:08.971Z,21.04
2018-06-27T08:59:39.009Z,21.23
2018-06-27T09:02:09.035Z,21.39
2018-06-27T09:04:39.095Z,21.46
2018-06-27T09:07:09.702Z,21.47
2018-06-27T09:09:40.935Z,21.57
2018-06-27T09:12:10.930Z,21.69
2018-06-27T09:14:41.999Z,21.94
2018-06-27T09:17:13.034Z,22.03
2018-06-27T09:19:44.046Z,21.92
2018-06-27T09:22:15.384Z,21.91
2018-06-27T09:24:46.014Z,22.06
2018-06-27T09:27:15.872Z,22.15
2018-06-27T09:29:47.275Z,22.20
2018-06-27T09:32:17.841Z,22.36
2018-06-27T09:34:49.232Z,22.04
2018-06-27T09:37:19.882Z,22.13
2018-06-27T09:39:51.303Z,21.98
2018-06-27T09:42:21.942Z,22.29
2018-06-27T09:44:53.030Z,22.21
2018-06-27T09:47:23.868Z,22.36
2018-06-27T09:49:54.278Z,22.31
2018-06-27T09:52:24.903Z,22.44
2018-06-27T09:54:57.230Z,22.76
2018-06-27T09:57:27.214Z,23.04
2018-06-27T09:59:58.830Z,23.17
2018-06-27T10:02:29.572Z,22.98
2018-06-27T10:05:00.123Z,22.88
2018-06-27T10:07:30.892Z,23.03
2018-06-27T10:10:01.895Z,22.90
2018-06-27T10:12:32.545Z,22.71
2018-06-27T10:15:03.234Z,22.83
2018-06-27T10:17:34.011Z,23.48
2018-06-27T10:20:05.111Z,23.60
2018-06-27T10:22:35.925Z,23.32
2018-06-27T10:25:06.160Z,23.14
2018-06-27T10:27:36.933Z,23.29
2018-06-27T10:30:08.145Z,23.23
2018-06-27T10:32:39.041Z,23.26
2018-06-27T10:35:10.157Z,23.06
2018-06-27T10:37:40.148Z,22.96
2018-06-27T10:40:11.070Z,22.95
2018-06-27T10:42:41.872Z,23.16
2018-06-27T10:45:13.401Z,23.40
2018-06-27T10:47:43.989Z,23.87
2018-06-27T10:50:13.898Z,24.18
2018-06-27T10:52:45.291Z,23.84
2018-06-27T10:55:19.974Z,23.92
2018-06-27T10:57:50.104Z,23.83
2018-06-27T11:00:20.074Z,23.77
2018-06-27T11:02:49.941Z,23.34
2018-06-27T11:05:19.954Z,23.30
2018-06-27T11:07:50.693Z,23.18
2018-06-27T11:10:21.410Z,23.27
2018-06-27T11:12:52.018Z,23.22
2018-06-27T11:15:22.955Z,23.58
2018-06-27T11:17:54.102Z,24.16
2018-06-27T11:20:25.026Z,24.66
2018-06-27T11:22:56.066Z,24.44
2018-06-27T11:25:27.226Z,24.27
2018-06-27T11:27:57.967Z,24.27
2018-06-27T11:30:28.978Z,24.39
2018-06-27T11:32:59.888Z,24.67
2018-06-27T11:35:31.346Z,24.41
2018-06-27T11:38:02.001Z,24.51
2018-06-27T11:40:33.157Z,24.82
2018-06-27T11:43:04.030Z,24.38
2018-06-27T11:45:35.051Z,24.02
2018-06-27T11:48:06.138Z,24.03
2018-06-27T11:50:37.116Z,24.14
2018-06-27T11:53:07.934Z,24.14
2018-06-27T11:55:38.930Z,23.87
2018-06-27T11:58:10.379Z,23.70
2018-06-27T12:00:42.066Z,23.70
2018-06-27T12:03:12.003Z,23.87
2018-06-27T12:05:45.932Z,23.86
2018-06-27T12:08:16.043Z,23.92
2018-06-27T12:10:46.046Z,23.94
2018-06-27T12:13:16.571Z,23.96
2018-06-27T12:15:47.070Z,23.95
2018-06-27T12:18:17.020Z,23.93
2018-06-27T12:20:47.992Z,23.94
2018-06-27T12:23:19.267Z,23.98
2018-06-27T12:25:49.978Z,24.02
2018-06-27T12:28:21.019Z,24.27
2018-06-27T12:30:52.154Z,24.39
2018-06-27T12:33:22.964Z,24.61
2018-06-27T12:35:54.049Z,24.67
2018-06-27T12:38:24.934Z,24.70
2018-06-27T12:40:56.077Z,24.63
2018-06-27T12:43:27.024Z,24.59
2018-06-27T12:45:58.225Z,24.44
2018-06-27T12:48:29.042Z,24.39
2018-06-27T12:50:58.915Z,24.32
2018-06-27T12:53:30.398Z,24.42
2018-06-27T12:56:01.111Z,24.78
2018-06-27T12:58:32.262Z,25.31
2018-06-27T13:01:02.938Z,25.69
2018-06-27T13:03:34.340Z,25.56
2018-06-27T13:06:05.038Z,25.22
2018-06-27T13:08:35.899Z,25.06
2018-06-27T13:11:07.350Z,25.01
2018-06-27T13:13:38.013Z,24.59
2018-06-27T13:16:08.996Z,24.37
2018-06-27T13:18:40.038Z,24.32
2018-06-27T13:21:11.016Z,24.17
2018-06-27T13:23:41.965Z,23.93
2018-06-27T13:26:13.204Z,23.97
2018-06-27T13:28:43.975Z,23.86
2018-06-27T13:31:14.535Z,24.00
2018-06-27T13:33:45.106Z,24.03
2018-06-27T13:36:15.973Z,24.05
2018-06-27T13:38:47.011Z,24.01
2018-06-27T13:41:17.902Z,24.15
2018-06-27T13:43:48.546Z,24.23
2018-06-27T13:46:19.258Z,24.16
2018-06-27T13:48:49.939Z,24.28
2018-06-27T13:51:21.343Z,24.21
2018-06-27T13:53:52.034Z,24.25
2018-06-27T13:56:21.955Z,24.01
2018-06-27T13:58:52.921Z,23.86
2018-06-27T14:01:24.010Z,23.92
2018-06-27T14:03:55.010Z,23.79
2018-06-27T14:06:26.067Z,23.68
2018-06-27T14:08:56.966Z,23.57
2018-06-27T14:11:28.054Z,23.55
2018-06-27T14:13:58.890Z,23.66
2018-06-27T14:16:29.992Z,23.72
2018-06-27T14:19:01.003Z,23.74
2018-06-27T14:21:32.139Z,23.76
2018-06-27T14:24:02.144Z,23.65
2018-06-27T14:26:33.062Z,23.58
2018-06-27T14:29:04.040Z,23.54
2018-06-27T14:31:34.777Z,23.60
2018-06-27T14:34:05.491Z,23.46
2018-06-27T14:36:36.191Z,23.44
2018-06-27T14:39:09.482Z,23.44
2018-06-27T14:41:40.183Z,23.51
2018-06-27T14:44:10.734Z,23.46
2018-06-27T14:46:40.725Z,23.39
2018-06-27T14:49:11.289Z,23.28
2018-06-27T14:51:41.230Z,23.16
2018-06-27T14:54:12.039Z,23.13
2018-06-27T14:56:43.037Z,23.07
2018-06-27T14:59:14.160Z,23.08
2018-06-27T15:01:44.073Z,23.12
2018-06-27T15:04:14.938Z,23.13
2018-06-27T15:06:46.033Z,23.15
2018-06-27T15:09:16.953Z,23.15
2018-06-27T15:11:48.035Z,23.13
2018-06-27T15:14:19.102Z,23.25
2018-06-27T15:16:50.171Z,23.19
2018-06-27T15:19:20.972Z,23.16
2018-06-27T15:21:52.019Z,23.16
2018-06-27T15:24:22.967Z,23.16
2018-06-27T15:26:54.007Z,23.08
2018-06-27T15:29:24.929Z,23.03
2018-06-27T15:31:55.601Z,23.09
2018-06-27T15:34:26.187Z,23.18
2018-06-27T15:36:56.206Z,23.24
2018-06-27T15:39:27.123Z,23.30
2018-06-27T15:41:58.100Z,23.22
2018-06-27T15:44:28.986Z,23.25
2018-06-27T15:46:59.972Z,23.32
2018-06-27T15:49:31.019Z,23.32
2018-06-27T15:52:02.091Z,23.26
2018-06-27T15:54:33.778Z,23.28
2018-06-27T15:57:04.534Z,23.40
2018-06-27T15:59:35.183Z,23.39
2018-06-27T16:02:06.086Z,23.33
2018-06-27T16:04:37.050Z,23.18
2018-06-27T16:07:07.991Z,23.02
2018-06-27T16:09:39.423Z,22.98
2018-06-27T16:12:10.184Z,22.95
2018-06-27T16:14:41.053Z,22.86
2018-06-27T16:17:12.211Z,22.87
2018-06-27T16:19:43.155Z,22.71
2018-06-27T16:22:14.094Z,22.68
2018-06-27T16:24:45.117Z,22.58
2018-06-27T16:27:15.985Z,22.71
2018-06-27T16:29:47.073Z,22.68
2018-06-27T16:32:18.137Z,22.70
2018-06-27T16:34:49.214Z,22.66
2018-06-27T16:37:20.114Z,22.70
2018-06-27T16:39:50.883Z,22.67
2018-06-27T16:42:22.263Z,22.68
2018-06-27T16:44:53.029Z,22.58
2018-06-27T16:47:23.953Z,22.60
2018-06-27T16:49:55.292Z,22.63
2018-06-27T16:52:26.028Z,22.55
2018-06-27T16:54:56.962Z,22.45
2018-06-27T16:57:27.993Z,22.57
2018-06-27T16:59:58.944Z,22.46
2018-06-27T17:02:29.895Z,22.45
2018-06-27T17:05:01.245Z,22.37
2018-06-27T17:07:31.969Z,22.43
2018-06-27T17:10:03.002Z,22.44
2018-06-27T17:12:34.046Z,22.38
2018-06-27T17:15:05.013Z,22.37
2018-06-27T17:17:36.058Z,22.40
2018-06-27T17:20:07.271Z,22.36
2018-06-27T17:22:37.948Z,22.27
2018-06-27T17:25:09.334Z,22.30
2018-06-27T17:27:40.017Z,22.33
2018-06-27T17:30:10.922Z,22.33
2018-06-27T17:32:41.975Z,22.26
2018-06-27T17:35:13.071Z,22.22
2018-06-27T17:37:44.102Z,22.27
2018-06-27T17:40:14.965Z,22.34
2018-06-27T17:42:44.930Z,22.39
2018-06-27T17:45:15.917Z,22.43
2018-06-27T17:47:47.357Z,22.46
2018-06-27T17:50:17.982Z,22.47
2018-06-27T17:52:48.974Z,22.46
2018-06-27T17:55:20.328Z,22.43
2018-06-27T17:57:51.011Z,22.46
2018-06-27T18:00:21.979Z,22.45
2018-06-27T18:02:52.910Z,22.46
2018-06-27T18:05:24.247Z,22.45
2018-06-27T18:07:55.009Z,22.42
2018-06-27T18:10:25.964Z,22.41
2018-06-27T18:12:57.099Z,22.40
2018-06-27T18:15:27.965Z,22.37
2018-06-27T18:17:59.157Z,22.33
2018-06-27T18:20:29.019Z,22.30
2018-06-27T18:22:58.901Z,22.26
2018-06-27T18:25:30.254Z,22.24
2018-06-27T18:28:00.995Z,22.16
2018-06-27T18:30:32.027Z,22.03
2018-06-27T18:33:03.018Z,22.01
2018-06-27T18:35:34.438Z,21.96
2018-06-27T18:44:39.140Z,21.84
2018-06-27T18:47:09.035Z,21.83
2018-06-27T18:49:38.822Z,21.84
2018-06-27T18:52:08.926Z,21.83
2018-06-27T18:54:38.780Z,21.80
2018-06-27T18:57:08.717Z,21.77
2018-06-27T18:59:38.584Z,21.73
2018-06-27T19:02:08.702Z,21.71
2018-06-27T19:04:38.564Z,21.69
2018-06-27T19:07:08.576Z,21.63
2018-06-27T19:09:38.458Z,21.58
2018-06-27T19:12:08.701Z,21.54
2018-06-27T19:14:38.528Z,21.50
2018-06-27T19:17:08.760Z,21.43
2018-06-27T19:19:38.824Z,21.37
2018-06-27T19:22:08.795Z,21.34
2018-06-27T19:24:38.743Z,21.31
2018-06-27T19:27:08.602Z,21.24
2018-06-27T19:29:38.482Z,21.22
2018-06-27T19:32:08.543Z,21.18
2018-06-27T19:34:38.516Z,21.16
2018-06-27T19:37:09.764Z,21.11
2018-06-27T19:39:39.820Z,21.06
2018-06-27T19:42:09.790Z,21.02
2018-06-27T19:44:39.636Z,20.94
2018-06-27T19:47:09.586Z,20.72
2018-06-27T19:49:39.425Z,20.71
2018-06-27T19:52:09.548Z,20.69
2018-06-27T19:54:39.441Z,20.68
2018-06-27T19:57:09.552Z,20.70
2018-06-27T19:59:39.449Z,20.69
2018-06-27T20:02:09.637Z,20.68
2018-06-27T20:04:39.979Z,20.66
2018-06-27T20:07:09.883Z,20.65
2018-06-27T20:09:39.784Z,20.61
2018-06-27T20:12:09.902Z,20.52
2018-06-27T20:14:39.828Z,20.49
2018-06-27T20:17:09.932Z,20.42
2018-06-27T20:19:39.817Z,20.41
2018-06-27T20:22:09.968Z,20.40
2018-06-27T20:24:40.065Z,20.38
2018-06-27T20:27:09.957Z,20.38
2018-06-27T20:29:39.824Z,20.34
2018-06-27T20:32:10.102Z,20.29
2018-06-27T20:34:39.952Z,20.28
2018-06-27T20:37:09.800Z,20.20
2018-06-27T20:39:40.008Z,20.19
2018-06-27T20:42:09.854Z,20.17
2018-06-27T20:44:39.770Z,20.17
2018-06-27T20:47:09.670Z,20.12
2018-06-27T20:49:39.523Z,20.08
2018-06-27T20:52:09.550Z,20.08
2018-06-27T20:54:39.451Z,19.99
2018-06-27T20:57:09.498Z,19.93
2018-06-27T20:59:39.521Z,19.75
2018-06-27T21:02:09.613Z,19.88
2018-06-27T21:04:39.861Z,19.87
2018-06-27T21:07:09.861Z,19.81
2018-06-27T21:09:39.801Z,19.73
2018-06-27T21:12:09.672Z,19.67
2018-06-27T21:14:41.718Z,19.67
2018-06-27T21:17:11.771Z,19.62
2018-06-27T21:19:41.696Z,19.63
2018-06-27T21:22:11.530Z,19.60
2018-06-27T21:24:41.565Z,19.57
2018-06-27T21:27:11.385Z,19.58
2018-06-27T21:29:41.573Z,19.50
2018-06-27T21:32:11.439Z,19.46
2018-06-27T21:34:41.522Z,19.47
2018-06-27T21:37:11.429Z,19.45
2018-06-27T21:39:41.446Z,19.42
2018-06-27T21:42:11.409Z,19.36
2018-06-27T21:44:41.469Z,19.35
2018-06-27T21:47:11.513Z,19.36
2018-06-27T21:49:41.538Z,19.33
2018-06-27T21:52:11.478Z,19.37
2018-06-27T21:54:41.440Z,19.35
2018-06-27T21:57:11.467Z,19.24
2018-06-27T21:59:41.508Z,19.27
2018-06-27T22:02:11.536Z,19.20
2018-06-27T22:04:41.478Z,19.19
2018-06-27T22:07:11.388Z,19.20
2018-06-27T22:09:41.492Z,19.23
2018-06-27T22:12:11.868Z,19.28
2018-06-27T22:14:42.360Z,19.18
2018-06-27T22:17:12.637Z,19.05
2018-06-27T22:19:43.037Z,19.05
2018-06-27T22:22:13.211Z,18.96
2018-06-27T22:24:43.691Z,19.01
2018-06-27T22:27:13.599Z,19.04
2018-06-27T22:29:43.582Z,19.08
2018-06-27T22:32:13.433Z,19.10
2018-06-27T22:34:43.446Z,19.06
2018-06-27T22:37:13.397Z,19.06
2018-06-27T22:39:43.386Z,19.01
2018-06-27T22:42:13.732Z,19.05
2018-06-27T22:44:43.717Z,19.09
2018-06-27T22:47:13.637Z,19.08
2018-06-27T22:49:43.621Z,19.02
2018-06-27T22:52:13.571Z,18.98
2018-06-27T22:54:43.568Z,18.98
2018-06-27T22:57:13.850Z,19.01
2018-06-27T22:59:43.809Z,18.95
2018-06-27T23:02:13.677Z,18.93
2018-06-27T23:04:43.634Z,18.96
2018-06-27T23:07:14.494Z,18.95
2018-06-27T23:09:45.085Z,18.95
2018-06-27T23:12:15.918Z,19.01
2018-06-27T23:14:47.536Z,19.00
2018-06-27T23:17:18.466Z,18.94
2018-06-27T23:19:49.172Z,18.91
2018-06-27T23:22:30.206Z,18.94
2018-06-27T23:25:00.735Z,18.92
2018-06-27T23:27:30.721Z,18.96
2018-06-27T23:30:01.061Z,18.99
2018-06-27T23:32:30.922Z,19.02
2018-06-27T23:35:00.790Z,19.06
2018-06-27T23:37:30.797Z,19.10
2018-06-27T23:40:00.664Z,19.08
2018-06-27T23:42:31.263Z,19.10
2018-06-27T23:45:01.449Z,19.09
2018-06-27T23:47:32.328Z,19.17
2018-06-27T23:50:02.737Z,19.18
2018-06-27T23:52:32.719Z,19.15
2018-06-27T23:55:03.269Z,19.17
2018-06-27T23:57:33.949Z,19.22
